Boncarbo, Colorado
Current Conditions -  °F | °C
As of 6:54 AM on Monday 20 Oct 2014 (Local Time) from KTAD Reporting Station
Clear Clear  
Wind Chill:   Ceiling: Unl
Heat Index:   Visibility: 10mi
Dew Point:   Wind: 12mph
Humidity: 76%   Direction: 270°W
Pressure: 30.22"   Gusts: NA
Location:  37.22°N, 104.7°W
Report Text: KTAD 201254Z AUTO 27010KT 10SM CLR 06/02 A3022 RMK AO2 SLP198 T00560017
Loading
Personal Weather Stations






























Interactive Weather Map
Tropical Storm Tracking
New forecast layout! Learn more

10-Day Weather Forecast

Advertisements
Track Severe Weather on mobile